Time,TemperatureF,DewpointF,PressureIn,WindDirection,WindDirectionDegrees,WindSpeedMPH,WindSpeedGustMPH,Humidity,HourlyPrecipIn,Conditions,Clouds,dailyrainin,SoftwareType,DateUTC
2013-01-26 00:02:00,56.0,50.9,30.05,WNW,283,0.0,1.0,83,0.00,,,0.00,WeatherCatV1.13B119,2013-01-26 08:02:00,
2013-01-26 00:07:00,56.1,50.7,30.05,North,351,0.0,0.0,82,0.00,,,0.00,WeatherCatV1.13B119,2013-01-26 08:07:00,
2013-01-26 00:12:00,56.3,50.9,30.05,NE,51,0.0,0.0,82,0.00,,,0.00,WeatherCatV1.13B119,2013-01-26 08:12:00,
2013-01-26 00:17:00,56.5,50.7,30.05,SW,225,0.0,0.0,81,0.00,,,0.00,WeatherCatV1.13B119,2013-01-26 08:17:00,
2013-01-26 00:22:00,56.5,50.7,30.05,SW,228,0.0,0.0,81,0.00,,,0.00,WeatherCatV1.13B119,2013-01-26 08:22:00,
2013-01-26 00:27:00,56.3,50.5,30.05,SW,229,0.0,0.0,81,0.00,,,0.00,WeatherCatV1.13B119,2013-01-26 08:27:00,
2013-01-26 00:32:00,56.1,50.3,30.04,West,267,4.0,8.0,81,0.00,,,0.00,WeatherCatV1.13B119,2013-01-26 08:32:00,
2013-01-26 00:37:00,55.9,50.2,30.04,SSW,210,0.0,0.0,81,0.00,,,0.00,WeatherCatV1.13B119,2013-01-26 08:37:00,
2013-01-26 00:42:00,55.6,49.9,30.04,SSW,210,0.0,0.0,81,0.00,,,0.00,WeatherCatV1.13B119,2013-01-26 08:42:00,
2013-01-26 00:47:00,55.5,50.1,30.04,SSW,210,0.0,0.0,82,0.00,,,0.00,WeatherCatV1.13B119,2013-01-26 08:47:00,
2013-01-26 00:52:00,55.5,49.8,30.04,SSW,203,0.0,0.0,81,0.00,,,0.00,WeatherCatV1.13B119,2013-01-26 08:52:00,
2013-01-26 00:57:00,55.5,49.8,30.04,SSW,207,0.0,0.0,81,0.00,,,0.00,WeatherCatV1.13B119,2013-01-26 08:57:00,
2013-01-26 01:02:00,55.5,49.8,30.03,SSW,208,0.0,0.0,81,0.00,,,0.00,WeatherCatV1.13B119,2013-01-26 09:02:00,
2013-01-26 01:07:00,55.3,49.6,30.03,SSW,208,0.0,0.0,81,0.00,,,0.00,WeatherCatV1.13B119,2013-01-26 09:07:00,
2013-01-26 01:12:00,55.1,49.4,30.03,SW,224,0.0,0.0,81,0.00,,,0.00,WeatherCatV1.13B119,2013-01-26 09:12:00,
2013-01-26 01:17:00,55.1,49.4,30.03,NNE,27,0.0,0.0,81,0.00,,,0.00,WeatherCatV1.13B119,2013-01-26 09:17:00,
2013-01-26 01:22:00,55.2,49.5,30.03,NNE,27,0.0,0.0,81,0.00,,,0.00,WeatherCatV1.13B119,2013-01-26 09:22:00,
2013-01-26 01:27:00,55.3,49.6,30.03,West,266,0.0,0.0,81,0.00,,,0.00,WeatherCatV1.13B119,2013-01-26 09:27:00,
2013-01-26 01:32:00,55.2,49.5,30.03,West,266,0.0,0.0,81,0.00,,,0.00,WeatherCatV1.13B119,2013-01-26 09:32:00,
2013-01-26 01:37:00,55.1,49.4,30.03,West,267,0.0,0.0,81,0.00,,,0.00,WeatherCatV1.13B119,2013-01-26 09:37:00,
2013-01-26 01:42:00,54.9,49.5,30.03,NNW,336,0.0,0.0,82,0.00,,,0.00,WeatherCatV1.13B119,2013-01-26 09:42:00,
2013-01-26 01:47:00,54.7,49.3,30.03,NE,44,0.0,0.0,82,0.00,,,0.00,WeatherCatV1.13B119,2013-01-26 09:47:00,
2013-01-26 01:52:00,54.3,48.9,30.03,NE,39,0.0,0.0,82,0.00,,,0.00,WeatherCatV1.13B119,2013-01-26 09:52:00,
2013-01-26 01:57:00,54.0,49.0,30.03,NE,37,1.0,1.0,83,0.00,,,0.00,WeatherCatV1.13B119,2013-01-26 09:57:00,
2013-01-26 02:02:00,54.0,48.3,30.03,NNE,23,0.0,2.0,81,0.00,,,0.00,WeatherCatV1.13B119,2013-01-26 10:02:00,
2013-01-26 02:07:00,54.2,48.5,30.03,NNE,23,0.0,0.0,81,0.00,,,0.00,WeatherCatV1.13B119,2013-01-26 10:07:00,
2013-01-26 02:12:00,54.3,48.9,30.03,NE,34,0.0,0.0,82,0.00,,,0.00,WeatherCatV1.13B119,2013-01-26 10:12:00,
2013-01-26 02:17:00,54.3,49.2,30.03,NE,47,0.0,0.0,83,0.00,,,0.00,WeatherCatV1.13B119,2013-01-26 10:17:00,
2013-01-26 02:22:00,54.1,49.4,30.03,West,267,0.0,2.0,84,0.00,,,0.00,WeatherCatV1.13B119,2013-01-26 10:22:00,
2013-01-26 02:27:00,54.0,49.3,30.03,WSW,249,1.0,1.0,84,0.00,,,0.00,WeatherCatV1.13B119,2013-01-26 10:27:00,
2013-01-26 02:32:00,53.8,49.1,30.03,WSW,250,0.0,0.0,84,0.00,,,0.00,WeatherCatV1.13B119,2013-01-26 10:32:00,
2013-01-26 02:37:00,53.7,49.3,30.03,NE,47,0.0,0.0,85,0.00,,,0.00,WeatherCatV1.13B119,2013-01-26 10:37:00,
2013-01-26 02:42:00,53.5,49.1,30.03,NE,47,0.0,0.0,85,0.00,,,0.00,WeatherCatV1.13B119,2013-01-26 10:42:00,
2013-01-26 02:47:00,53.4,49.3,30.03,NE,47,0.0,0.0,86,0.00,,,0.00,WeatherCatV1.13B119,2013-01-26 10:47:00,
2013-01-26 02:52:00,53.5,49.4,30.03,NE,37,0.0,1.0,86,0.00,,,0.00,WeatherCatV1.13B119,2013-01-26 10:52:00,
2013-01-26 02:57:00,53.5,49.4,30.02,NE,37,1.0,1.0,86,0.00,,,0.00,WeatherCatV1.13B119,2013-01-26 10:57:00,
2013-01-26 03:02:00,53.4,49.6,30.02,ESE,111,0.0,0.0,87,0.00,,,0.00,WeatherCatV1.13B119,2013-01-26 11:02:00,
2013-01-26 03:07:00,53.4,49.6,30.02,SW,231,0.0,2.0,87,0.00,,,0.00,WeatherCatV1.13B119,2013-01-26 11:07:00,
2013-01-26 03:12:00,53.5,49.7,30.02,NE,48,3.0,3.0,87,0.00,,,0.00,WeatherCatV1.13B119,2013-01-26 11:12:00,
2013-01-26 03:17:00,53.6,49.8,30.02,East,86,0.0,0.0,87,0.00,,,0.00,WeatherCatV1.13B119,2013-01-26 11:17:00,
2013-01-26 03:22:00,53.6,49.8,30.02,West,270,2.0,3.0,87,0.00,,,0.00,WeatherCatV1.13B119,2013-01-26 11:22:00,
2013-01-26 03:27:00,53.1,49.3,30.02,SSW,204,2.0,4.0,87,0.00,,,0.00,WeatherCatV1.13B119,2013-01-26 11:27:00,
2013-01-26 03:32:00,52.7,48.9,30.01,SW,228,1.0,4.0,87,0.00,,,0.00,WeatherCatV1.13B119,2013-01-26 11:32:00,
2013-01-26 03:37:00,52.3,48.5,30.02,WSW,245,0.0,1.0,87,0.00,,,0.00,WeatherCatV1.13B119,2013-01-26 11:37:00,
2013-01-26 03:42:00,52.1,48.7,30.01,SW,228,0.0,0.0,88,0.00,,,0.00,WeatherCatV1.13B119,2013-01-26 11:42:00,
2013-01-26 03:47:00,52.1,48.7,30.01,West,260,0.0,0.0,88,0.00,,,0.00,WeatherCatV1.13B119,2013-01-26 11:47:00,
2013-01-26 03:52:00,52.3,48.9,30.01,West,260,0.0,0.0,88,0.00,,,0.00,WeatherCatV1.13B119,2013-01-26 11:52:00,
2013-01-26 03:57:00,52.5,49.0,30.01,West,259,0.0,0.0,88,0.00,,,0.00,WeatherCatV1.13B119,2013-01-26 11:57:00,
2013-01-26 04:02:00,52.8,49.3,30.01,NE,43,0.0,0.0,88,0.00,,,0.00,WeatherCatV1.13B119,2013-01-26 12:02:00,
2013-01-26 04:07:00,52.7,49.2,30.01,NE,42,0.0,0.0,88,0.00,,,0.00,WeatherCatV1.13B119,2013-01-26 12:07:00,
2013-01-26 04:12:00,52.7,49.2,30.01,NE,43,0.0,0.0,88,0.00,,,0.00,WeatherCatV1.13B119,2013-01-26 12:12:00,
2013-01-26 04:17:00,52.7,49.2,30.01,NE,43,0.0,0.0,88,0.00,,,0.00,WeatherCatV1.13B119,2013-01-26 12:17:00,
2013-01-26 04:22:00,52.6,49.1,30.01,NE,42,0.0,0.0,88,0.00,,,0.00,WeatherCatV1.13B119,2013-01-26 12:22:00,
2013-01-26 04:27:00,52.6,49.1,30.01,NE,43,0.0,0.0,88,0.00,,,0.00,WeatherCatV1.13B119,2013-01-26 12:27:00,
2013-01-26 04:32:00,52.6,49.1,30.01,NE,42,0.0,0.0,88,0.00,,,0.00,WeatherCatV1.13B119,2013-01-26 12:32:00,
2013-01-26 04:37:00,52.3,48.5,30.01,NE,42,0.0,0.0,87,0.00,,,0.00,WeatherCatV1.13B119,2013-01-26 12:37:00,
2013-01-26 04:42:00,52.0,48.6,30.01,NE,42,0.0,0.0,88,0.00,,,0.00,WeatherCatV1.13B119,2013-01-26 12:42:00,
2013-01-26 04:47:00,51.9,48.5,30.01,NE,42,0.0,0.0,88,0.00,,,0.00,WeatherCatV1.13B119,2013-01-26 12:47:00,
2013-01-26 04:52:00,51.8,48.4,30.01,NE,43,0.0,0.0,88,0.00,,,0.00,WeatherCatV1.13B119,2013-01-26 12:52:00,
2013-01-26 04:57:00,51.6,48.2,30.01,NE,43,0.0,0.0,88,0.00,,,0.00,WeatherCatV1.13B119,2013-01-26 12:57:00,
2013-01-26 05:02:00,51.5,48.4,30.01,NE,42,0.0,0.0,89,0.00,,,0.00,WeatherCatV1.13B119,2013-01-26 13:02:00,
2013-01-26 05:07:00,51.5,48.4,30.01,NE,42,0.0,0.0,89,0.00,,,0.00,WeatherCatV1.13B119,2013-01-26 13:07:00,
2013-01-26 05:12:00,51.5,48.4,30.01,WNW,286,0.0,0.0,89,0.00,,,0.00,WeatherCatV1.13B119,2013-01-26 13:12:00,
2013-01-26 05:17:00,51.3,48.2,30.01,WNW,286,0.0,0.0,89,0.00,,,0.00,WeatherCatV1.13B119,2013-01-26 13:17:00,
2013-01-26 05:22:00,51.1,48.0,30.01,WNW,287,0.0,0.0,89,0.00,,,0.00,WeatherCatV1.13B119,2013-01-26 13:22:00,
2013-01-26 05:27:00,50.9,47.8,30.01,SW,232,0.0,0.0,89,0.00,,,0.00,WeatherCatV1.13B119,2013-01-26 13:27:00,
2013-01-26 05:32:00,50.7,47.6,30.01,SW,233,0.0,0.0,89,0.00,,,0.00,WeatherCatV1.13B119,2013-01-26 13:32:00,
2013-01-26 05:37:00,50.4,47.3,30.01,SW,233,0.0,0.0,89,0.00,,,0.00,WeatherCatV1.13B119,2013-01-26 13:37:00,
2013-01-26 05:42:00,50.2,47.1,30.01,SW,233,0.0,0.0,89,0.00,,,0.00,WeatherCatV1.13B119,2013-01-26 13:42:00,
2013-01-26 05:47:00,50.3,47.2,30.01,SW,233,0.0,0.0,89,0.00,,,0.00,WeatherCatV1.13B119,2013-01-26 13:47:00,
2013-01-26 05:52:00,50.4,47.6,30.01,SW,233,0.0,0.0,90,0.00,,,0.00,WeatherCatV1.13B119,2013-01-26 13:52:00,
2013-01-26 05:57:00,50.4,47.6,30.01,SW,236,0.0,0.0,90,0.00,,,0.00,WeatherCatV1.13B119,2013-01-26 13:57:00,
2013-01-26 06:02:00,50.2,47.4,30.01,SW,236,0.0,0.0,90,0.00,,,0.00,WeatherCatV1.13B119,2013-01-26 14:02:00,
2013-01-26 06:07:00,50.1,47.3,30.01,SW,236,0.0,0.0,90,0.00,,,0.00,WeatherCatV1.13B119,2013-01-26 14:07:00,
2013-01-26 06:12:00,50.1,47.3,30.01,SW,236,0.0,0.0,90,0.00,,,0.00,WeatherCatV1.13B119,2013-01-26 14:12:00,
2013-01-26 06:17:00,50.0,47.2,30.00,SW,236,0.0,0.0,90,0.00,,,0.00,WeatherCatV1.13B119,2013-01-26 14:17:00,
2013-01-26 06:22:00,49.9,47.1,30.01,SW,236,0.0,0.0,90,0.00,,,0.00,WeatherCatV1.13B119,2013-01-26 14:22:00,
2013-01-26 06:27:00,50.0,47.2,30.01,SW,236,0.0,0.0,90,0.00,,,0.00,WeatherCatV1.13B119,2013-01-26 14:27:00,
2013-01-26 06:32:00,50.2,47.4,30.01,SW,233,0.0,0.0,90,0.00,,,0.00,WeatherCatV1.13B119,2013-01-26 14:32:00,
2013-01-26 06:37:00,50.3,47.5,30.01,West,271,0.0,0.0,90,0.00,,,0.00,WeatherCatV1.13B119,2013-01-26 14:37:00,
2013-01-26 06:42:00,50.3,47.5,30.01,WSW,241,0.0,0.0,90,0.00,,,0.00,WeatherCatV1.13B119,2013-01-26 14:42:00,
2013-01-26 06:47:00,50.2,47.4,30.01,WSW,249,0.0,0.0,90,0.00,,,0.00,WeatherCatV1.13B119,2013-01-26 14:47:00,
2013-01-26 06:52:00,50.1,47.3,30.01,WSW,243,0.0,0.0,90,0.00,,,0.00,WeatherCatV1.13B119,2013-01-26 14:52:00,
2013-01-26 06:57:00,50.1,47.3,30.01,WSW,256,0.0,0.0,90,0.00,,,0.00,WeatherCatV1.13B119,2013-01-26 14:57:00,
2013-01-26 07:02:00,50.2,47.7,30.01,WSW,252,0.0,0.0,91,0.00,,,0.00,WeatherCatV1.13B119,2013-01-26 15:02:00,
2013-01-26 07:07:00,50.1,47.6,30.01,WSW,252,0.0,0.0,91,0.00,,,0.00,WeatherCatV1.13B119,2013-01-26 15:07:00,
2013-01-26 07:12:00,49.9,47.4,30.01,WSW,252,0.0,0.0,91,0.00,,,0.00,WeatherCatV1.13B119,2013-01-26 15:12:00,
2013-01-26 07:17:00,49.9,47.4,30.01,WSW,252,0.0,0.0,91,0.00,,,0.00,WeatherCatV1.13B119,2013-01-26 15:17:00,
2013-01-26 07:22:00,49.9,47.4,30.01,WSW,248,0.0,0.0,91,0.00,,,0.00,WeatherCatV1.13B119,2013-01-26 15:22:00,
2013-01-26 07:27:00,50.0,47.5,30.01,WSW,240,0.0,0.0,91,0.00,,,0.00,WeatherCatV1.13B119,2013-01-26 15:27:00,
2013-01-26 07:32:00,50.1,47.6,30.01,SW,228,1.0,1.0,91,0.00,,,0.00,WeatherCatV1.13B119,2013-01-26 15:32:00,
2013-01-26 07:37:00,50.3,47.8,30.01,WSW,252,2.0,3.0,91,0.00,,,0.00,WeatherCatV1.13B119,2013-01-26 15:37:00,
2013-01-26 07:42:00,50.4,47.9,30.01,WSW,243,2.0,2.0,91,0.00,,,0.00,WeatherCatV1.13B119,2013-01-26 15:42:00,
2013-01-26 07:47:00,50.4,47.9,30.01,WSW,246,0.0,0.0,91,0.00,,,0.00,WeatherCatV1.13B119,2013-01-26 15:47:00,
2013-01-26 07:52:00,50.5,48.0,30.01,WSW,252,0.0,0.0,91,0.00,,,0.00,WeatherCatV1.13B119,2013-01-26 15:52:00,
2013-01-26 07:57:00,50.5,48.0,30.01,WSW,256,0.0,0.0,91,0.00,,,0.00,WeatherCatV1.13B119,2013-01-26 15:57:00,
2013-01-26 08:02:00,50.4,47.9,30.01,WSW,250,0.0,1.0,91,0.00,,,0.00,WeatherCatV1.13B119,2013-01-26 16:02:00,
2013-01-26 08:07:00,50.4,47.9,30.01,WSW,250,0.0,1.0,91,0.00,,,0.00,WeatherCatV1.13B119,2013-01-26 16:07:00,
2013-01-26 08:12:00,50.2,47.7,30.01,WSW,248,0.0,0.0,91,0.00,,,0.00,WeatherCatV1.13B119,2013-01-26 16:12:00,
2013-01-26 08:17:00,50.1,47.6,30.01,SW,229,1.0,4.0,91,0.00,,,0.00,WeatherCatV1.13B119,2013-01-26 16:17:00,
2013-01-26 08:22:00,50.1,47.6,30.01,West,259,1.0,2.0,91,0.00,,,0.00,WeatherCatV1.13B119,2013-01-26 16:22:00,
2013-01-26 08:27:00,50.6,48.1,30.01,West,259,0.0,0.0,91,0.00,,,0.00,WeatherCatV1.13B119,2013-01-26 16:27:00,
2013-01-26 08:32:00,51.2,48.7,30.02,West,259,0.0,0.0,91,0.00,,,0.00,WeatherCatV1.13B119,2013-01-26 16:32:00,
2013-01-26 08:37:00,51.9,49.4,30.02,West,260,0.0,0.0,91,0.00,,,0.00,WeatherCatV1.13B119,2013-01-26 16:37:00,
2013-01-26 08:42:00,52.0,49.2,30.01,WSW,239,2.0,5.0,90,0.00,,,0.00,WeatherCatV1.13B119,2013-01-26 16:42:00,
2013-01-26 08:47:00,52.3,48.5,30.01,West,267,2.0,2.0,87,0.00,,,0.00,WeatherCatV1.13B119,2013-01-26 16:47:00,
2013-01-26 08:52:00,52.9,48.5,30.02,WSW,257,3.0,4.0,85,0.00,,,0.00,WeatherCatV1.13B119,2013-01-26 16:52:00,
2013-01-26 08:57:00,53.1,48.7,30.02,WSW,240,0.0,1.0,85,0.00,,,0.00,WeatherCatV1.13B119,2013-01-26 16:57:00,
2013-01-26 09:02:00,53.4,48.4,30.02,West,259,2.0,3.0,83,0.00,,,0.00,WeatherCatV1.13B119,2013-01-26 17:02:00,
2013-01-26 09:07:00,53.8,47.4,30.02,WSW,250,2.0,4.0,79,0.00,,,0.00,WeatherCatV1.13B119,2013-01-26 17:07:00,
2013-01-26 09:12:00,54.3,47.2,30.02,SW,215,1.0,3.0,77,0.00,,,0.00,WeatherCatV1.13B119,2013-01-26 17:12:00,
2013-01-26 09:17:00,54.6,45.4,30.02,WSW,243,4.0,5.0,71,0.00,,,0.00,WeatherCatV1.13B119,2013-01-26 17:17:00,
2013-01-26 09:22:00,54.8,45.2,30.02,WSW,257,2.0,2.0,70,0.00,,,0.00,WeatherCatV1.13B119,2013-01-26 17:22:00,
2013-01-26 09:27:00,54.7,47.6,30.02,SW,215,3.0,5.0,77,0.00,,,0.00,WeatherCatV1.13B119,2013-01-26 17:27:00,
2013-01-26 09:32:00,53.9,47.5,30.02,WSW,245,3.0,4.0,79,0.00,,,0.00,WeatherCatV1.13B119,2013-01-26 17:32:00,
2013-01-26 09:37:00,54.3,46.5,30.02,SW,222,0.0,0.0,75,0.00,,,0.00,WeatherCatV1.13B119,2013-01-26 17:37:00,
2013-01-26 09:42:00,55.2,45.6,30.02,WSW,246,2.0,4.0,70,0.00,,,0.00,WeatherCatV1.13B119,2013-01-26 17:42:00,
2013-01-26 09:47:00,55.7,45.3,30.03,SW,231,1.0,6.0,68,0.00,,,0.00,WeatherCatV1.13B119,2013-01-26 17:47:00,
2013-01-26 09:52:00,56.0,45.2,30.03,WSW,257,0.0,3.0,67,0.00,,,0.00,WeatherCatV1.13B119,2013-01-26 17:52:00,
2013-01-26 09:57:00,56.5,45.7,30.03,SSW,211,2.0,5.0,67,0.00,,,0.00,WeatherCatV1.13B119,2013-01-26 17:57:00,
2013-01-26 10:02:00,56.8,44.3,30.03,SW,231,4.0,8.0,63,0.00,,,0.00,WeatherCatV1.13B119,2013-01-26 18:02:00,
2013-01-26 10:07:00,56.9,43.6,30.03,SW,231,7.0,7.0,61,0.00,,,0.00,WeatherCatV1.13B119,2013-01-26 18:07:00,
2013-01-26 10:12:00,57.2,44.3,30.03,SW,218,3.0,5.0,62,0.00,,,0.00,WeatherCatV1.13B119,2013-01-26 18:12:00,
2013-01-26 10:17:00,58.0,43.8,30.03,SSW,193,0.0,3.0,59,0.00,,,0.00,WeatherCatV1.13B119,2013-01-26 18:17:00,
2013-01-26 10:22:00,58.6,43.4,30.03,SW,233,0.0,2.0,57,0.00,,,0.00,WeatherCatV1.13B119,2013-01-26 18:22:00,
2013-01-26 10:27:00,58.8,43.1,30.03,West,274,0.0,4.0,56,0.00,,,0.00,WeatherCatV1.13B119,2013-01-26 18:27:00,
2013-01-26 10:32:00,58.9,41.8,30.03,WNW,293,0.0,5.0,53,0.00,,,0.00,WeatherCatV1.13B119,2013-01-26 18:32:00,
2013-01-26 10:37:00,59.5,42.4,30.04,WSW,246,1.0,2.0,53,0.00,,,0.00,WeatherCatV1.13B119,2013-01-26 18:37:00,
2013-01-26 10:42:00,59.7,39.4,30.04,SW,215,0.0,4.0,47,0.00,,,0.00,WeatherCatV1.13B119,2013-01-26 18:42:00,
2013-01-26 10:47:00,59.9,41.2,30.03,SW,225,0.0,2.0,50,0.00,,,0.00,WeatherCatV1.13B119,2013-01-26 18:47:00,
2013-01-26 10:52:00,60.5,41.8,30.04,SW,219,0.0,3.0,50,0.00,,,0.00,WeatherCatV1.13B119,2013-01-26 18:52:00,
2013-01-26 10:57:00,60.4,40.1,30.03,SW,233,2.0,2.0,47,0.00,,,0.00,WeatherCatV1.13B119,2013-01-26 18:57:00,
2013-01-26 11:02:00,60.7,38.1,30.03,SW,226,1.0,6.0,43,0.00,,,0.00,WeatherCatV1.13B119,2013-01-26 19:02:00,
2013-01-26 11:07:00,59.9,37.3,30.03,South,172,2.0,7.0,43,0.00,,,0.00,WeatherCatV1.13B119,2013-01-26 19:07:00,
2013-01-26 11:12:00,60.2,40.4,30.03,WNW,283,1.0,3.0,48,0.00,,,0.00,WeatherCatV1.13B119,2013-01-26 19:12:00,
2013-01-26 11:17:00,60.5,40.2,30.03,ESE,117,2.0,4.0,47,0.00,,,0.00,WeatherCatV1.13B119,2013-01-26 19:17:00,
2013-01-26 11:22:00,59.5,39.8,30.03,West,262,3.0,9.0,48,0.00,,,0.00,WeatherCatV1.13B119,2013-01-26 19:22:00,
2013-01-26 11:27:00,59.3,40.7,30.03,SW,222,2.0,4.0,50,0.00,,,0.00,WeatherCatV1.13B119,2013-01-26 19:27:00,
2013-01-26 11:32:00,59.5,40.3,30.03,SW,222,2.0,6.0,49,0.00,,,0.00,WeatherCatV1.13B119,2013-01-26 19:32:00,
2013-01-26 11:37:00,60.2,41.0,30.02,SW,226,1.0,3.0,49,0.00,,,0.00,WeatherCatV1.13B119,2013-01-26 19:37:00,
2013-01-26 11:42:00,60.5,41.2,30.02,West,274,4.0,4.0,49,0.00,,,0.00,WeatherCatV1.13B119,2013-01-26 19:42:00,
2013-01-26 11:47:00,60.7,41.4,30.02,West,273,1.0,3.0,49,0.00,,,0.00,WeatherCatV1.13B119,2013-01-26 19:47:00,
2013-01-26 11:52:00,60.6,41.3,30.02,NNE,23,1.0,2.0,49,0.00,,,0.00,WeatherCatV1.13B119,2013-01-26 19:52:00,
2013-01-26 11:57:00,60.7,42.5,30.01,WNW,284,2.0,3.0,51,0.00,,,0.00,WeatherCatV1.13B119,2013-01-26 19:57:00,
2013-01-26 12:02:00,60.6,42.9,30.01,NE,34,1.0,6.0,52,0.00,,,0.00,WeatherCatV1.13B119,2013-01-26 20:02:00,
2013-01-26 12:07:00,61.0,43.7,30.01,West,269,1.0,2.0,53,0.00,,,0.00,WeatherCatV1.13B119,2013-01-26 20:07:00,
2013-01-26 12:12:00,60.5,42.8,30.01,West,278,4.0,6.0,52,0.00,,,0.00,WeatherCatV1.13B119,2013-01-26 20:12:00,
2013-01-26 12:17:00,60.7,43.5,30.01,WSW,255,0.0,1.0,53,0.00,,,0.00,WeatherCatV1.13B119,2013-01-26 20:17:00,
2013-01-26 12:22:00,61.2,44.4,30.01,WSW,255,1.0,2.0,54,0.00,,,0.00,WeatherCatV1.13B119,2013-01-26 20:22:00,
2013-01-26 12:27:00,61.6,43.3,30.01,SSW,195,2.0,5.0,51,0.00,,,0.00,WeatherCatV1.13B119,2013-01-26 20:27:00,
2013-01-26 12:32:00,61.4,43.1,30.00,West,271,2.0,5.0,51,0.00,,,0.00,WeatherCatV1.13B119,2013-01-26 20:32:00,
2013-01-26 12:37:00,60.5,46.1,30.00,WSW,252,6.0,7.0,59,0.00,,,0.00,WeatherCatV1.13B119,2013-01-26 20:37:00,
2013-01-26 12:42:00,60.2,44.0,30.00,ENE,60,1.0,10.0,55,0.00,,,0.00,WeatherCatV1.13B119,2013-01-26 20:42:00,
2013-01-26 12:47:00,60.1,44.3,30.00,WSW,248,5.0,5.0,56,0.00,,,0.00,WeatherCatV1.13B119,2013-01-26 20:47:00,
2013-01-26 12:52:00,60.7,44.0,30.00,SSW,207,1.0,5.0,54,0.00,,,0.00,WeatherCatV1.13B119,2013-01-26 20:52:00,
2013-01-26 12:57:00,61.4,43.6,29.99,North,10,0.0,2.0,52,0.00,,,0.00,WeatherCatV1.13B119,2013-01-26 20:57:00,
2013-01-26 13:02:00,61.5,42.7,30.00,West,269,5.0,7.0,50,0.00,,,0.00,WeatherCatV1.13B119,2013-01-26 21:02:00,
2013-01-26 13:07:00,61.5,44.7,29.99,SW,226,0.0,4.0,54,0.00,,,0.00,WeatherCatV1.13B119,2013-01-26 21:07:00,
2013-01-26 13:12:00,61.8,43.0,29.99,West,264,7.0,10.0,50,0.00,,,0.00,WeatherCatV1.13B119,2013-01-26 21:12:00,
2013-01-26 13:17:00,61.0,46.1,29.99,WNW,285,2.0,6.0,58,0.00,,,0.00,WeatherCatV1.13B119,2013-01-26 21:17:00,
2013-01-26 13:22:00,61.9,45.6,29.99,SE,130,1.0,2.0,55,0.00,,,0.00,WeatherCatV1.13B119,2013-01-26 21:22:00,
2013-01-26 13:27:00,62.5,45.1,29.99,WNW,291,2.0,6.0,53,0.00,,,0.00,WeatherCatV1.13B119,2013-01-26 21:27:00,
2013-01-26 13:32:00,62.2,45.3,29.99,West,262,0.0,3.0,54,0.00,,,0.00,WeatherCatV1.13B119,2013-01-26 21:32:00,
2013-01-26 13:37:00,62.0,45.6,29.99,West,270,9.0,9.0,55,0.00,,,0.00,WeatherCatV1.13B119,2013-01-26 21:37:00,
2013-01-26 13:42:00,60.7,46.3,29.99,West,271,5.0,6.0,59,0.00,,,0.00,WeatherCatV1.13B119,2013-01-26 21:42:00,
2013-01-26 13:47:00,59.5,44.7,29.99,West,276,5.0,5.0,58,0.00,,,0.00,WeatherCatV1.13B119,2013-01-26 21:47:00,
2013-01-26 13:52:00,58.7,46.1,29.99,SW,223,2.0,2.0,63,0.00,,,0.00,WeatherCatV1.13B119,2013-01-26 21:52:00,
2013-01-26 13:57:00,59.4,43.2,29.99,West,262,4.0,5.0,55,0.00,,,0.00,WeatherCatV1.13B119,2013-01-26 21:57:00,
2013-01-26 14:02:00,59.9,43.7,29.99,WSW,256,2.0,4.0,55,0.00,,,0.00,WeatherCatV1.13B119,2013-01-26 22:02:00,
2013-01-26 14:07:00,60.4,44.2,29.99,SSW,210,4.0,5.0,55,0.00,,,0.00,WeatherCatV1.13B119,2013-01-26 22:07:00,
2013-01-26 14:12:00,60.7,43.5,29.99,West,259,1.0,4.0,53,0.00,,,0.00,WeatherCatV1.13B119,2013-01-26 22:12:00,
2013-01-26 14:17:00,61.1,44.3,29.99,North,355,3.0,3.0,54,0.00,,,0.00,WeatherCatV1.13B119,2013-01-26 22:17:00,
2013-01-26 14:22:00,61.1,43.3,29.99,WNW,291,1.0,5.0,52,0.00,,,0.00,WeatherCatV1.13B119,2013-01-26 22:22:00,
2013-01-26 14:27:00,61.4,43.1,29.99,NW,326,1.0,5.0,51,0.00,,,0.00,WeatherCatV1.13B119,2013-01-26 22:27:00,
2013-01-26 14:32:00,60.9,44.1,29.99,NW,326,4.0,12.0,54,0.00,,,0.00,WeatherCatV1.13B119,2013-01-26 22:32:00,
2013-01-26 14:37:00,60.6,43.9,30.00,WSW,250,1.0,9.0,54,0.00,,,0.00,WeatherCatV1.13B119,2013-01-26 22:37:00,
2013-01-26 14:42:00,60.6,42.4,30.00,SW,233,2.0,8.0,51,0.00,,,0.00,WeatherCatV1.13B119,2013-01-26 22:42:00,
2013-01-26 14:47:00,60.3,42.1,30.00,SW,233,1.0,6.0,51,0.00,,,0.00,WeatherCatV1.13B119,2013-01-26 22:47:00,
2013-01-26 14:52:00,60.4,42.7,30.00,West,264,2.0,7.0,52,0.00,,,0.00,WeatherCatV1.13B119,2013-01-26 22:52:00,
2013-01-26 14:57:00,60.4,42.7,30.00,NW,319,2.0,5.0,52,0.00,,,0.00,WeatherCatV1.13B119,2013-01-26 22:57:00,
2013-01-26 15:02:00,60.5,42.8,30.00,SW,226,1.0,8.0,52,0.00,,,0.00,WeatherCatV1.13B119,2013-01-26 23:02:00,
2013-01-26 15:07:00,60.6,42.4,30.00,WSW,245,1.0,5.0,51,0.00,,,0.00,WeatherCatV1.13B119,2013-01-26 23:07:00,
2013-01-26 15:12:00,60.5,42.8,30.00,WSW,243,4.0,7.0,52,0.00,,,0.00,WeatherCatV1.13B119,2013-01-26 23:12:00,
2013-01-26 15:17:00,60.5,42.3,30.00,West,262,1.0,4.0,51,0.00,,,0.00,WeatherCatV1.13B119,2013-01-26 23:17:00,
2013-01-26 15:22:00,60.7,42.5,30.00,WSW,238,1.0,5.0,51,0.00,,,0.00,WeatherCatV1.13B119,2013-01-26 23:22:00,
2013-01-26 15:27:00,60.7,42.5,30.00,NE,56,0.0,3.0,51,0.00,,,0.00,WeatherCatV1.13B119,2013-01-26 23:27:00,
2013-01-26 15:32:00,60.0,41.3,30.00,North,5,2.0,5.0,50,0.00,,,0.00,WeatherCatV1.13B119,2013-01-26 23:32:00,
2013-01-26 15:37:00,59.2,41.1,30.00,NW,304,1.0,7.0,51,0.00,,,0.00,WeatherCatV1.13B119,2013-01-26 23:37:00,
2013-01-26 15:42:00,59.1,41.5,30.00,SSW,192,1.0,8.0,52,0.00,,,0.00,WeatherCatV1.13B119,2013-01-26 23:42:00,
2013-01-26 15:47:00,59.1,42.5,30.00,SW,222,4.0,4.0,54,0.00,,,0.00,WeatherCatV1.13B119,2013-01-26 23:47:00,
2013-01-26 15:52:00,59.4,41.8,30.00,West,271,4.0,6.0,52,0.00,,,0.00,WeatherCatV1.13B119,2013-01-26 23:52:00,
2013-01-26 15:57:00,59.6,42.0,30.00,ESE,118,1.0,4.0,52,0.00,,,0.00,WeatherCatV1.13B119,2013-01-26 23:57:00,
2013-01-26 16:02:00,59.8,42.1,30.00,WSW,253,9.0,9.0,52,0.00,,,0.00,WeatherCatV1.13B119,2013-01-27 00:02:00,
2013-01-26 16:07:00,58.8,40.7,30.00,West,281,3.0,10.0,51,0.00,,,0.00,WeatherCatV1.13B119,2013-01-27 00:07:00,
2013-01-26 16:12:00,58.0,40.5,30.00,West,263,3.0,9.0,52,0.00,,,0.00,WeatherCatV1.13B119,2013-01-27 00:12:00,
2013-01-26 16:17:00,57.7,41.6,30.00,WSW,245,2.0,2.0,55,0.00,,,0.00,WeatherCatV1.13B119,2013-01-27 00:17:00,
2013-01-26 16:22:00,57.9,41.8,30.00,WNW,295,0.0,2.0,55,0.00,,,0.00,WeatherCatV1.13B119,2013-01-27 00:22:00,
2013-01-26 16:27:00,58.1,41.5,30.00,SSW,203,1.0,6.0,54,0.00,,,0.00,WeatherCatV1.13B119,2013-01-27 00:27:00,
2013-01-26 16:32:00,57.4,41.4,30.00,ENE,64,1.0,6.0,55,0.00,,,0.00,WeatherCatV1.13B119,2013-01-27 00:32:00,
2013-01-26 16:37:00,57.0,41.0,29.99,NW,316,1.0,7.0,55,0.00,,,0.00,WeatherCatV1.13B119,2013-01-27 00:37:00,
2013-01-26 16:42:00,56.6,41.1,30.00,WSW,245,1.0,4.0,56,0.00,,,0.00,WeatherCatV1.13B119,2013-01-27 00:42:00,
2013-01-26 16:47:00,56.4,41.4,30.00,SW,233,2.0,8.0,57,0.00,,,0.00,WeatherCatV1.13B119,2013-01-27 00:47:00,
2013-01-26 16:52:00,55.7,40.7,30.00,SW,220,0.0,10.0,57,0.00,,,0.00,WeatherCatV1.13B119,2013-01-27 00:52:00,
2013-01-26 16:57:00,55.3,40.8,30.00,West,263,3.0,6.0,58,0.00,,,0.00,WeatherCatV1.13B119,2013-01-27 00:57:00,
2013-01-26 17:02:00,55.0,40.9,30.00,WSW,246,1.0,4.0,59,0.00,,,0.00,WeatherCatV1.13B119,2013-01-27 01:02:00,
2013-01-26 17:07:00,54.2,40.2,30.00,SW,218,2.0,16.0,59,0.00,,,0.00,WeatherCatV1.13B119,2013-01-27 01:07:00,
2013-01-26 17:12:00,53.4,40.7,30.00,SW,236,1.0,4.0,62,0.00,,,0.00,WeatherCatV1.13B119,2013-01-27 01:12:00,
2013-01-26 17:17:00,52.6,40.4,30.00,SW,225,3.0,10.0,63,0.00,,,0.00,WeatherCatV1.13B119,2013-01-27 01:17:00,
2013-01-26 17:22:00,51.7,40.3,30.00,WSW,253,3.0,5.0,65,0.00,,,0.00,WeatherCatV1.13B119,2013-01-27 01:22:00,
2013-01-26 17:27:00,50.8,40.2,30.00,SSW,207,1.0,7.0,67,0.00,,,0.00,WeatherCatV1.13B119,2013-01-27 01:27:00,
2013-01-26 17:32:00,50.3,40.1,30.00,SW,236,2.0,5.0,68,0.00,,,0.00,WeatherCatV1.13B119,2013-01-27 01:32:00,
2013-01-26 17:37:00,49.9,40.1,30.01,West,281,3.0,5.0,69,0.00,,,0.00,WeatherCatV1.13B119,2013-01-27 01:37:00,
2013-01-26 17:42:00,49.5,39.8,30.01,WSW,251,2.0,3.0,69,0.00,,,0.00,WeatherCatV1.13B119,2013-01-27 01:42:00,
2013-01-26 17:47:00,49.3,39.6,30.01,WSW,249,4.0,7.0,69,0.00,,,0.00,WeatherCatV1.13B119,2013-01-27 01:47:00,
2013-01-26 17:52:00,49.2,39.5,30.01,West,266,5.0,8.0,69,0.00,,,0.00,WeatherCatV1.13B119,2013-01-27 01:52:00,
2013-01-26 17:57:00,49.0,39.6,30.01,West,262,4.0,5.0,70,0.00,,,0.00,WeatherCatV1.13B119,2013-01-27 01:57:00,
2013-01-26 18:02:00,48.8,39.5,30.01,WSW,246,1.0,8.0,70,0.00,,,0.00,WeatherCatV1.13B119,2013-01-27 02:02:00,
2013-01-26 18:07:00,48.7,39.7,30.02,WSW,243,4.0,9.0,71,0.00,,,0.00,WeatherCatV1.13B119,2013-01-27 02:07:00,
2013-01-26 18:12:00,48.6,39.6,30.02,South,190,3.0,4.0,71,0.00,,,0.00,WeatherCatV1.13B119,2013-01-27 02:12:00,
2013-01-26 18:17:00,48.3,39.7,30.02,SSW,212,3.0,6.0,72,0.00,,,0.00,WeatherCatV1.13B119,2013-01-27 02:17:00,
2013-01-26 18:22:00,48.3,39.7,30.02,WSW,257,6.0,8.0,72,0.00,,,0.00,WeatherCatV1.13B119,2013-01-27 02:22:00,
2013-01-26 18:27:00,48.2,40.0,30.02,WSW,243,1.0,7.0,73,0.00,,,0.00,WeatherCatV1.13B119,2013-01-27 02:27:00,
2013-01-26 18:32:00,48.0,39.8,30.02,SW,233,1.0,5.0,73,0.00,,,0.00,WeatherCatV1.13B119,2013-01-27 02:32:00,
2013-01-26 18:37:00,47.9,39.7,30.02,WSW,244,2.0,8.0,73,0.00,,,0.00,WeatherCatV1.13B119,2013-01-27 02:37:00,
2013-01-26 18:42:00,47.8,39.9,30.03,SW,217,7.0,10.0,74,0.00,,,0.00,WeatherCatV1.13B119,2013-01-27 02:42:00,
2013-01-26 18:47:00,47.8,39.6,30.03,WSW,243,1.0,6.0,73,0.00,,,0.00,WeatherCatV1.13B119,2013-01-27 02:47:00,
2013-01-26 18:52:00,47.7,39.1,30.03,SW,228,4.0,4.0,72,0.00,,,0.00,WeatherCatV1.13B119,2013-01-27 02:52:00,
2013-01-26 18:57:00,47.6,38.7,30.03,WSW,243,1.0,7.0,71,0.00,,,0.00,WeatherCatV1.13B119,2013-01-27 02:57:00,
2013-01-26 19:02:00,47.6,38.7,30.03,SSE,162,0.0,2.0,71,0.00,,,0.00,WeatherCatV1.13B119,2013-01-27 03:02:00,
2013-01-26 19:07:00,47.4,38.8,30.03,SW,229,3.0,4.0,72,0.00,,,0.00,WeatherCatV1.13B119,2013-01-27 03:07:00,
2013-01-26 19:12:00,47.2,38.6,30.04,ENE,61,1.0,9.0,72,0.00,,,0.00,WeatherCatV1.13B119,2013-01-27 03:12:00,
2013-01-26 19:17:00,47.3,39.4,30.04,West,276,2.0,4.0,74,0.00,,,0.00,WeatherCatV1.13B119,2013-01-27 03:17:00,
2013-01-26 19:22:00,47.3,39.8,30.04,WSW,248,1.0,4.0,75,0.00,,,0.00,WeatherCatV1.13B119,2013-01-27 03:22:00,
2013-01-26 19:27:00,47.3,40.1,30.04,West,273,1.0,5.0,76,0.00,,,0.00,WeatherCatV1.13B119,2013-01-27 03:27:00,
2013-01-26 19:32:00,47.1,39.9,30.04,WSW,255,0.0,0.0,76,0.00,,,0.00,WeatherCatV1.13B119,2013-01-27 03:32:00,
2013-01-26 19:37:00,46.8,40.0,30.04,WSW,240,0.0,2.0,77,0.00,,,0.00,WeatherCatV1.13B119,2013-01-27 03:37:00,
2013-01-26 19:42:00,46.5,39.7,30.04,WSW,251,0.0,0.0,77,0.00,,,0.00,WeatherCatV1.13B119,2013-01-27 03:42:00,
2013-01-26 19:47:00,46.3,39.8,30.04,WSW,242,0.0,0.0,78,0.00,,,0.00,WeatherCatV1.13B119,2013-01-27 03:47:00,
2013-01-26 19:52:00,46.0,39.9,30.05,NNE,23,1.0,1.0,79,0.00,,,0.00,WeatherCatV1.13B119,2013-01-27 03:52:00,
2013-01-26 19:57:00,46.0,40.2,30.05,West,271,0.0,5.0,80,0.00,,,0.00,WeatherCatV1.13B119,2013-01-27 03:57:00,
2013-01-26 20:02:00,46.3,40.5,30.05,SSW,212,0.0,5.0,80,0.00,,,0.00,WeatherCatV1.13B119,2013-01-27 04:02:00,
2013-01-26 20:07:00,46.7,40.5,30.05,ESE,105,1.0,7.0,79,0.00,,,0.00,WeatherCatV1.13B119,2013-01-27 04:07:00,
2013-01-26 20:12:00,46.8,40.6,30.05,WNW,287,1.0,5.0,79,0.00,,,0.00,WeatherCatV1.13B119,2013-01-27 04:12:00,
2013-01-26 20:17:00,46.9,40.7,30.05,NE,43,0.0,2.0,79,0.00,,,0.00,WeatherCatV1.13B119,2013-01-27 04:17:00,
2013-01-26 20:22:00,46.9,40.1,30.05,ENE,65,0.0,4.0,77,0.00,,,0.00,WeatherCatV1.13B119,2013-01-27 04:22:00,
2013-01-26 20:27:00,46.9,40.1,30.05,SW,225,1.0,2.0,77,0.00,,,0.00,WeatherCatV1.13B119,2013-01-27 04:27:00,
2013-01-26 20:32:00,47.0,40.2,30.05,West,281,2.0,2.0,77,0.00,,,0.00,WeatherCatV1.13B119,2013-01-27 04:32:00,
2013-01-26 20:37:00,47.1,40.6,30.05,West,275,3.0,5.0,78,0.00,,,0.00,WeatherCatV1.13B119,2013-01-27 04:37:00,
2013-01-26 20:42:00,47.1,40.6,30.05,WSW,245,2.0,4.0,78,0.00,,,0.00,WeatherCatV1.13B119,2013-01-27 04:42:00,
2013-01-26 20:47:00,47.0,40.8,30.05,West,259,2.0,3.0,79,0.00,,,0.00,WeatherCatV1.13B119,2013-01-27 04:47:00,
2013-01-26 20:52:00,46.9,41.1,30.05,WSW,243,1.0,4.0,80,0.00,,,0.00,WeatherCatV1.13B119,2013-01-27 04:52:00,
2013-01-26 20:57:00,46.9,41.1,30.05,South,185,1.0,4.0,80,0.00,,,0.00,WeatherCatV1.13B119,2013-01-27 04:57:00,
2013-01-26 21:00:00,46.9,41.1,30.05,SSW,210,1.0,2.0,80,0.00,,,0.00,WeatherCatV1.13B119,2013-01-27 05:00:00,
2013-01-26 21:05:00,46.9,41.1,30.06,SW,228,0.0,2.0,80,0.00,,,0.00,WeatherCatV1.13B119,2013-01-27 05:05:00,
2013-01-26 21:08:00,46.8,41.0,30.05,SW,233,0.0,4.0,80,0.00,,,0.00,WeatherCatV1.13B119,2013-01-27 05:08:00,
2013-01-26 21:09:00,46.9,41.1,30.06,West,260,1.0,2.0,80,0.00,,,0.00,WeatherCatV1.13B119,2013-01-27 05:09:00,
2013-01-26 21:14:00,46.8,40.6,30.06,WSW,256,1.0,5.0,79,0.00,,,0.00,WeatherCatV1.13B119,2013-01-27 05:14:00,
2013-01-26 21:19:00,46.8,41.0,30.05,SW,232,1.0,6.0,80,0.00,,,0.00,WeatherCatV1.13B119,2013-01-27 05:19:00,
2013-01-26 21:24:00,46.9,41.1,30.05,NNE,13,0.0,1.0,80,0.00,,,0.00,WeatherCatV1.13B119,2013-01-27 05:24:00,
2013-01-26 21:28:00,46.8,40.6,30.06,WSW,240,1.0,1.0,79,0.00,,,0.00,WeatherCatV1.13B119,2013-01-27 05:28:00,
2013-01-26 21:33:00,46.9,40.7,30.06,WSW,253,2.0,8.0,79,0.00,,,0.00,WeatherCatV1.13B119,2013-01-27 05:33:00,
2013-01-26 21:38:00,46.9,40.7,30.06,NE,46,1.0,2.0,79,0.00,,,0.00,WeatherCatV1.13B119,2013-01-27 05:38:00,
2013-01-26 21:43:00,46.8,40.6,30.06,WSW,240,0.0,2.0,79,0.00,,,0.00,WeatherCatV1.13B119,2013-01-27 05:43:00,
2013-01-26 21:48:00,46.8,41.0,30.06,WSW,250,0.0,1.0,80,0.00,,,0.00,WeatherCatV1.13B119,2013-01-27 05:48:00,
2013-01-26 21:53:00,46.7,40.9,30.06,WSW,238,0.0,0.0,80,0.00,,,0.00,WeatherCatV1.13B119,2013-01-27 05:53:00,
2013-01-26 21:58:00,46.7,40.9,30.06,SSW,194,0.0,4.0,80,0.00,,,0.00,WeatherCatV1.13B119,2013-01-27 05:58:00,
2013-01-26 22:03:00,46.8,41.0,30.06,ENE,60,0.0,0.0,80,0.00,,,0.00,WeatherCatV1.13B119,2013-01-27 06:03:00,
2013-01-26 22:08:00,46.8,41.0,30.06,NE,48,0.0,4.0,80,0.00,,,0.00,WeatherCatV1.13B119,2013-01-27 06:08:00,
2013-01-26 22:13:00,47.0,40.8,30.06,NE,37,0.0,2.0,79,0.00,,,0.00,WeatherCatV1.13B119,2013-01-27 06:13:00,
2013-01-26 22:18:00,46.9,41.1,30.06,NE,37,0.0,0.0,80,0.00,,,0.00,WeatherCatV1.13B119,2013-01-27 06:18:00,
2013-01-26 22:23:00,46.8,41.0,30.06,SW,231,0.0,1.0,80,0.00,,,0.00,WeatherCatV1.13B119,2013-01-27 06:23:00,
2013-01-26 22:28:00,46.5,41.3,30.06,NNW,333,0.0,0.0,82,0.00,,,0.00,WeatherCatV1.13B119,2013-01-27 06:28:00,
2013-01-26 22:33:00,46.3,41.4,30.07,SW,219,0.0,0.0,83,0.00,,,0.00,WeatherCatV1.13B119,2013-01-27 06:33:00,
2013-01-26 22:38:00,46.3,41.4,30.07,NNW,328,0.0,2.0,83,0.00,,,0.00,WeatherCatV1.13B119,2013-01-27 06:38:00,
2013-01-26 22:43:00,46.2,41.6,30.07,NE,52,0.0,0.0,84,0.00,,,0.00,WeatherCatV1.13B119,2013-01-27 06:43:00,
2013-01-26 22:48:00,46.1,41.5,30.07,NE,41,0.0,0.0,84,0.00,,,0.00,WeatherCatV1.13B119,2013-01-27 06:48:00,
2013-01-26 22:53:00,45.9,41.3,30.07,SSW,193,0.0,0.0,84,0.00,,,0.00,WeatherCatV1.13B119,2013-01-27 06:53:00,
2013-01-26 22:58:00,45.8,41.2,30.07,NE,34,0.0,0.0,84,0.00,,,0.00,WeatherCatV1.13B119,2013-01-27 06:58:00,
2013-01-26 23:03:00,45.7,41.1,30.08,SSE,163,0.0,1.0,84,0.00,,,0.00,WeatherCatV1.13B119,2013-01-27 07:03:00,
2013-01-26 23:08:00,45.8,41.2,30.08,WSW,252,1.0,3.0,84,0.00,,,0.00,WeatherCatV1.13B119,2013-01-27 07:08:00,
2013-01-26 23:13:00,46.0,41.1,30.08,WNW,283,0.0,2.0,83,0.00,,,0.00,WeatherCatV1.13B119,2013-01-27 07:13:00,
2013-01-26 23:18:00,46.0,41.1,30.08,SW,222,0.0,0.0,83,0.00,,,0.00,WeatherCatV1.13B119,2013-01-27 07:18:00,
2013-01-26 23:23:00,46.0,41.1,30.08,SW,218,0.0,1.0,83,0.00,,,0.00,WeatherCatV1.13B119,2013-01-27 07:23:00,
2013-01-26 23:28:00,46.0,41.1,30.08,SW,217,0.0,0.0,83,0.00,,,0.00,WeatherCatV1.13B119,2013-01-27 07:28:00,
2013-01-26 23:33:00,46.0,41.1,30.08,West,259,3.0,4.0,83,0.00,,,0.00,WeatherCatV1.13B119,2013-01-27 07:33:00,
2013-01-26 23:38:00,46.1,41.2,30.08,NE,47,2.0,4.0,83,0.00,,,0.00,WeatherCatV1.13B119,2013-01-27 07:38:00,
2013-01-26 23:43:00,46.2,41.3,30.08,NE,40,0.0,3.0,83,0.00,,,0.00,WeatherCatV1.13B119,2013-01-27 07:43:00,
2013-01-26 23:48:00,46.1,41.2,30.08,North,359,0.0,2.0,83,0.00,,,0.00,WeatherCatV1.13B119,2013-01-27 07:48:00,
2013-01-26 23:53:00,46.2,41.3,30.08,SW,230,0.0,4.0,83,0.00,,,0.00,WeatherCatV1.13B119,2013-01-27 07:53:00,
2013-01-26 23:59:00,46.2,41.3,30.08,WSW,239,2.0,6.0,83,0.00,,,0.00,WeatherCatV1.13B119,2013-01-27 07:59:00,